Time;durP1;ratioP1;P1;durP2;ratioP2;P2;SDS_P1;SDS_P2;PMS_P1;PMS_P2;Temp;Humidity;BMP_temperature;BMP_pressure;BME280_temperature;BME280_humidity;BME280_pressure;Samples;Min_cycle;Max_cycle;Signal;HPM_P1;HPM_P2
2023/08/23 00:00:00;;;;;;;5.80;2.97;;;;;;;16.31;89.65;102001.34;5041218;28;20060;-68
2023/08/23 00:02:25;;;;;;;4.25;2.70;;;;;;;16.27;89.58;102006.22;5034961;28;20057;-69
2023/08/23 00:04:51;;;;;;;3.00;1.80;;;;;;;16.27;89.48;102002.72;5039262;28;20116;-68
2023/08/23 00:07:16;;;;;;;2.97;2.03;;;;;;;16.19;89.63;101992.91;5045586;28;20028;-68
2023/08/23 00:09:41;;;;;;;2.53;1.92;;;;;;;16.13;89.12;101992.75;5034397;28;20040;-68
2023/08/23 00:12:07;;;;;;;2.95;2.00;;;;;;;16.09;88.88;101992.28;5032308;28;20021;-68
2023/08/23 00:14:32;;;;;;;5.55;2.13;;;;;;;16.13;89.13;101990.91;5029871;28;20024;-68
2023/08/23 00:16:57;;;;;;;2.55;2.33;;;;;;;16.17;88.91;101992.22;5031090;28;20017;-68
2023/08/23 00:19:23;;;;;;;6.70;3.25;;;;;;;16.25;89.05;101984.13;5031457;28;20654;-68
2023/08/23 00:21:48;;;;;;;5.47;2.88;;;;;;;16.26;89.19;101980.44;5035578;28;20030;-68
2023/08/23 00:24:13;;;;;;;5.28;3.10;;;;;;;16.30;88.78;101981.75;5030517;28;20471;-68
2023/08/23 00:26:39;;;;;;;4.78;2.95;;;;;;;16.29;88.81;101980.06;5030516;28;20053;-68
2023/08/23 00:29:04;;;;;;;4.45;3.00;;;;;;;16.31;88.54;101974.53;5031526;28;20021;-68
2023/08/23 00:31:29;;;;;;;4.28;2.97;;;;;;;16.32;88.56;101973.53;5038064;28;20067;-68
2023/08/23 00:33:54;;;;;;;4.93;2.97;;;;;;;16.28;88.66;101980.25;5037222;28;20021;-68
2023/08/23 00:36:20;;;;;;;4.50;3.10;;;;;;;16.27;88.65;101974.06;5039569;28;20083;-68
2023/08/23 00:38:45;;;;;;;12.70;2.90;;;;;;;16.21;88.37;101976.63;5033604;28;20090;-68
2023/08/23 00:41:10;;;;;;;6.78;2.97;;;;;;;16.31;88.38;101974.53;5038132;28;20035;-68
2023/08/23 00:43:35;;;;;;;5.28;3.20;;;;;;;16.32;88.77;101960.94;5032882;28;20552;-68
2023/08/23 00:46:01;;;;;;;2.75;2.25;;;;;;;16.29;88.66;101965.84;5036949;28;20032;-68
2023/08/23 00:48:27;;;;;;;5.97;2.50;;;;;;;16.28;87.96;101969.53;5031483;28;20052;-68
2023/08/23 00:50:52;;;;;;;2.83;2.20;;;;;;;16.25;87.84;101973.41;5036033;28;20021;-68
2023/08/23 00:53:17;;;;;;;3.42;2.15;;;;;;;16.26;87.78;101971.56;5032375;28;20396;-68
2023/08/23 00:55:43;;;;;;;4.55;2.25;;;;;;;16.16;87.49;101966.44;5031818;28;20766;-68
2023/08/23 00:58:09;;;;;;;3.08;2.50;;;;;;;16.16;87.54;101965.59;5029559;28;20867;-68
2023/08/23 01:00:34;;;;;;;3.50;2.78;;;;;;;16.13;87.77;101956.06;5029153;28;20095;-68
2023/08/23 01:03:00;;;;;;;3.70;2.85;;;;;;;16.08;87.83;101958.47;5033049;28;20079;-68
2023/08/23 01:05:40;;;;;;;4.03;2.70;;;;;;;16.04;88.02;101970.56;5030244;28;20152;-68
2023/08/23 01:08:18;;;;;;;5.63;3.00;;;;;;;15.94;88.22;101970.81;5039421;28;20052;-68
2023/08/23 01:10:51;;;;;;;5.05;3.42;;;;;;;15.98;88.17;101968.59;5035895;28;20020;-68
2023/08/23 01:13:45;;;;;;;4.60;3.10;;;;;;;16.05;88.69;101969.53;5031935;28;20143;-68
2023/08/23 01:16:12;;;;;;;3.85;2.65;;;;;;;15.87;88.35;101982.38;5029277;28;20505;-68
2023/08/23 01:18:40;;;;;;;4.65;3.00;;;;;;;15.90;88.24;101979.34;5030782;28;20542;-68
2023/08/23 01:21:06;;;;;;;4.35;2.78;;;;;;;15.78;88.15;101971.72;5032589;28;20083;-68
2023/08/23 01:23:32;;;;;;;5.70;3.38;;;;;;;15.78;87.99;101968.22;5029371;28;20017;-68
2023/08/23 01:25:57;;;;;;;3.47;2.95;;;;;;;15.70;88.09;101969.13;5030293;28;20032;-68
2023/08/23 01:28:22;;;;;;;4.63;2.78;;;;;;;15.71;88.21;101962.75;5032693;28;20096;-68
2023/08/23 01:30:50;;;;;;;5.70;3.50;;;;;;;15.73;88.19;101968.75;5029861;28;20022;-68
2023/08/23 01:33:27;;;;;;;5.93;3.30;;;;;;;15.80;88.59;101975.06;5035378;28;20071;-68
2023/08/23 01:36:17;;;;;;;5.47;3.20;;;;;;;15.76;88.54;101963.03;5031799;28;20029;-68
2023/08/23 01:38:43;;;;;;;4.43;2.80;;;;;;;15.63;88.30;101964.66;5035176;28;20537;-68
2023/08/23 01:41:09;;;;;;;5.72;3.40;;;;;;;15.57;88.21;101968.81;5031101;28;20112;-68
2023/08/23 01:43:34;;;;;;;5.65;3.55;;;;;;;15.64;88.79;101972.50;5036456;28;20105;-68
2023/08/23 01:46:00;;;;;;;5.75;3.88;;;;;;;15.66;88.77;101966.97;5029580;28;20471;-68
2023/08/23 01:48:25;;;;;;;5.80;3.40;;;;;;;15.64;88.88;101967.16;5031237;28;20013;-68
2023/08/23 01:50:51;;;;;;;4.18;3.20;;;;;;;15.71;89.12;101956.56;5031081;28;20022;-68
2023/08/23 01:53:16;;;;;;;4.03;3.50;;;;;;;15.71;89.04;101961.91;5030761;28;20021;-68
2023/08/23 01:55:41;;;;;;;7.30;3.50;;;;;;;15.76;89.18;101954.16;5031356;28;20028;-68
2023/08/23 01:58:07;;;;;;;10.07;3.72;;;;;;;15.72;88.74;101952.88;5034525;28;20056;-68
2023/08/23 02:00:32;;;;;;;5.88;3.88;;;;;;;15.77;88.97;101963.88;5035777;28;20460;-68
2023/08/23 02:02:57;;;;;;;5.45;3.35;;;;;;;15.77;88.78;101963.88;5030760;28;20039;-68
2023/08/23 02:05:22;;;;;;;4.78;3.10;;;;;;;15.77;89.07;101955.84;5031795;28;20054;-68
2023/08/23 02:07:48;;;;;;;5.63;3.38;;;;;;;15.77;89.08;101956.66;5037580;28;20087;-68
2023/08/23 02:10:13;;;;;;;5.13;3.22;;;;;;;15.75;88.87;101953.34;5031639;28;20028;-68
2023/08/23 02:12:39;;;;;;;3.85;3.03;;;;;;;15.76;88.54;101955.00;5026677;28;20034;-68
2023/08/23 02:15:05;;;;;;;6.95;3.30;;;;;;;15.76;88.58;101948.81;5033902;28;20017;-68
2023/08/23 02:17:30;;;;;;;3.75;3.38;;;;;;;15.71;88.62;101954.72;5029493;28;20032;-68
2023/08/23 02:19:56;;;;;;;5.25;3.53;;;;;;;15.68;88.82;101956.91;5030792;28;20604;-68
2023/08/23 02:22:21;;;;;;;6.45;4.00;;;;;;;15.66;88.87;101953.56;5028480;28;20033;-68
2023/08/23 02:24:46;;;;;;;6.32;3.75;;;;;;;15.65;89.11;101944.72;5031818;28;20025;-68
2023/08/23 02:27:12;;;;;;;5.95;3.80;;;;;;;15.66;88.83;101956.25;5034793;28;20045;-68
2023/08/23 02:29:37;;;;;;;5.30;3.80;;;;;;;15.62;88.95;101958.47;5028046;28;20037;-68
2023/08/23 02:32:02;;;;;;;6.75;3.50;;;;;;;15.69;89.20;101953.22;5038145;28;20501;-68
2023/08/23 02:34:28;;;;;;;3.90;3.28;;;;;;;15.66;89.16;101948.22;5041285;28;20040;-68
2023/08/23 02:36:53;;;;;;;3.50;3.20;;;;;;;15.67;89.26;101956.06;5033500;28;20025;-68
2023/08/23 02:39:19;;;;;;;5.75;3.70;;;;;;;15.66;89.26;101954.41;5034309;28;20031;-68
2023/08/23 02:41:44;;;;;;;5.95;3.17;;;;;;;15.63;88.95;101949.41;5032683;28;20086;-68
2023/08/23 02:44:09;;;;;;;5.10;3.50;;;;;;;15.57;88.96;101952.72;5035066;28;20024;-68
2023/08/23 02:46:34;;;;;;;4.45;3.38;;;;;;;15.60;89.16;101951.56;5033636;28;20061;-68
2023/08/23 02:49:00;;;;;;;2.95;2.72;;;;;;;15.60;89.42;101948.91;5038622;28;20528;-68
2023/08/23 02:51:25;;;;;;;5.95;3.80;;;;;;;15.55;89.57;101946.72;5041066;28;20880;-68
2023/08/23 02:53:50;;;;;;;6.30;4.68;;;;;;;15.57;89.36;101935.84;5039016;28;20074;-67
2023/08/23 02:56:16;;;;;;;5.10;3.83;;;;;;;15.52;89.34;101941.72;5030305;28;20053;-68
2023/08/23 02:58:41;;;;;;;4.30;2.80;;;;;;;15.52;89.64;101941.72;5039895;28;20440;-68
2023/08/23 03:01:06;;;;;;;3.25;2.53;;;;;;;15.47;89.32;101944.94;5029319;28;20041;-68
2023/08/23 03:03:31;;;;;;;4.25;2.75;;;;;;;15.43;89.42;101932.91;5035553;28;20025;-68
2023/08/23 03:05:57;;;;;;;5.85;3.40;;;;;;;15.38;89.46;101934.47;5028981;28;20578;-68
2023/08/23 03:08:23;;;;;;;9.27;3.75;;;;;;;15.43;89.43;101940.13;5035559;28;20045;-68
2023/08/23 03:10:49;;;;;;;7.63;3.95;;;;;;;15.46;89.50;101926.38;5027688;28;20048;-68
2023/08/23 03:13:14;;;;;;;4.25;3.65;;;;;;;15.48;89.86;101935.06;5028380;28;20037;-68
2023/08/23 03:15:40;;;;;;;5.78;4.00;;;;;;;15.49;89.75;101934.06;5030060;28;20052;-68
2023/08/23 03:18:05;;;;;;;5.10;3.67;;;;;;;15.52;89.46;101931.03;5036079;28;20052;-68
2023/08/23 03:20:30;;;;;;;4.35;3.63;;;;;;;15.45;89.43;101920.19;5031386;28;20030;-68
2023/08/23 03:22:55;;;;;;;4.60;3.22;;;;;;;15.33;89.45;101923.44;5031392;28;20506;-68
2023/08/23 03:25:21;;;;;;;3.42;2.70;;;;;;;15.37;89.24;101928.28;5029954;28;20499;-68
2023/08/23 03:27:52;;;;;;;4.22;2.90;;;;;;;15.36;88.91;101913.22;5035228;28;20056;-68
2023/08/23 03:30:20;;;;;;;4.50;3.42;;;;;;;15.30;89.64;101931.78;5037477;28;20025;-68
2023/08/23 03:32:46;;;;;;;5.18;3.45;;;;;;;15.36;89.70;101931.13;5032559;28;20025;-68
2023/08/23 03:35:11;;;;;;;3.75;3.35;;;;;;;15.32;90.03;101932.44;5031292;28;20433;-68
2023/08/23 03:37:36;;;;;;;5.43;3.88;;;;;;;15.31;89.70;101938.81;5034140;28;20573;-68
2023/08/23 03:40:02;;;;;;;7.53;4.10;;;;;;;15.31;89.83;101928.94;5031948;28;20036;-68
2023/08/23 03:42:27;;;;;;;4.78;4.07;;;;;;;15.31;90.16;101930.78;5043457;28;20029;-68
2023/08/23 03:44:53;;;;;;;3.70;3.38;;;;;;;15.25;90.17;101939.53;5033337;28;20032;-68
2023/08/23 03:47:18;;;;;;;5.53;3.88;;;;;;;15.15;90.32;101929.88;5038474;28;20029;-68
2023/08/23 03:49:43;;;;;;;5.95;3.70;;;;;;;15.04;90.33;101938.28;5039382;28;20364;-68
2023/08/23 03:52:09;;;;;;;4.10;3.80;;;;;;;14.96;90.49;101940.97;5034655;28;20033;-67
2023/08/23 03:54:35;;;;;;;6.25;3.70;;;;;;;14.89;90.92;101937.31;5037720;28;20032;-68
2023/08/23 03:57:00;;;;;;;3.10;2.72;;;;;;;14.82;90.46;101934.50;5039468;28;20449;-68
2023/08/23 03:59:25;;;;;;;4.05;2.75;;;;;;;14.78;90.67;101937.69;5043520;28;20108;-67
2023/08/23 04:01:50;;;;;;;7.00;3.00;;;;;;;14.70;91.09;101941.22;5044262;28;20505;-68
2023/08/23 04:04:16;;;;;;;4.32;2.65;;;;;;;14.64;90.95;101941.06;5039298;28;20049;-68
2023/08/23 04:06:41;;;;;;;3.53;2.58;;;;;;;14.53;91.28;101944.94;5037737;28;20524;-68
2023/08/23 04:09:06;;;;;;;5.53;2.72;;;;;;;14.42;91.24;101942.56;5042738;28;20045;-68
2023/08/23 04:11:31;;;;;;;5.45;2.83;;;;;;;14.43;91.81;101946.94;5040575;28;20036;-68
2023/08/23 04:13:57;;;;;;;5.18;2.65;;;;;;;14.39;92.01;101950.91;5044090;28;20025;-68
2023/08/23 04:16:22;;;;;;;6.68;2.53;;;;;;;14.36;92.22;101949.41;5035242;28;20029;-68
2023/08/23 04:18:47;;;;;;;4.90;2.90;;;;;;;14.26;92.15;101949.59;5035204;28;20478;-68
2023/08/23 04:21:12;;;;;;;5.82;2.80;;;;;;;14.19;92.01;101947.78;5040566;28;20056;-68
2023/08/23 04:23:38;;;;;;;7.80;3.30;;;;;;;14.16;91.93;101946.25;5029798;28;20033;-68
2023/08/23 04:26:03;;;;;;;7.90;3.35;;;;;;;14.15;92.39;101949.91;5035098;28;20641;-68
2023/08/23 04:28:28;;;;;;;18.05;4.03;;;;;;;14.19;92.76;101953.94;5035171;28;20033;-68
2023/08/23 04:30:59;;;;;;;9.15;4.40;;;;;;;14.15;93.66;101943.72;5031497;28;20076;-68
2023/08/23 04:33:25;;;;;;;7.30;4.60;;;;;;;14.19;93.79;101947.78;5029696;28;20024;-68
2023/08/23 04:35:50;;;;;;;8.35;4.50;;;;;;;14.20;94.11;101939.59;5031706;28;20029;-68
2023/08/23 04:38:15;;;;;;;7.78;4.10;;;;;;;14.22;94.19;101944.75;5033338;28;20502;-68
2023/08/23 04:40:40;;;;;;;6.95;4.05;;;;;;;14.20;94.03;101944.94;5032227;28;20032;-68
2023/08/23 04:43:06;;;;;;;7.35;4.20;;;;;;;14.22;93.73;101950.94;5036908;28;20014;-68
2023/08/23 04:45:31;;;;;;;5.35;3.70;;;;;;;14.30;94.26;101949.25;5030192;28;20091;-68
2023/08/23 04:47:56;;;;;;;6.53;4.03;;;;;;;14.36;94.65;101946.75;5030625;28;20033;-68
2023/08/23 04:50:21;;;;;;;6.53;4.15;;;;;;;14.43;94.15;101944.25;5029527;28;20021;-67
2023/08/23 04:52:47;;;;;;;5.85;4.30;;;;;;;14.47;94.23;101934.94;5035172;28;20037;-67
2023/08/23 04:55:12;;;;;;;7.40;4.38;;;;;;;14.43;93.98;101939.75;5030552;28;20540;-68
2023/08/23 04:57:37;;;;;;;5.72;4.00;;;;;;;14.44;93.76;101937.91;5030722;28;20041;-68
2023/08/23 05:00:06;;;;;;;10.10;3.95;;;;;;;14.44;93.94;101943.25;5049607;28;20658;-68
2023/08/23 05:02:32;;;;;;;10.23;4.32;;;;;;;14.43;93.68;101944.25;5041041;28;20028;-68
2023/08/23 05:04:57;;;;;;;6.82;4.32;;;;;;;14.43;94.13;101937.06;5043606;28;20443;-68
2023/08/23 05:07:22;;;;;;;10.50;4.15;;;;;;;14.55;93.98;101940.25;5037591;28;20025;-68
2023/08/23 05:09:47;;;;;;;4.90;3.80;;;;;;;14.61;94.38;101946.75;5032328;28;20723;-67
2023/08/23 05:12:13;;;;;;;6.28;4.28;;;;;;;14.67;93.78;101938.03;5041349;28;20024;-68
2023/08/23 05:14:38;;;;;;;6.93;3.80;;;;;;;14.70;94.23;101941.22;5029260;28;20029;-68
2023/08/23 05:17:03;;;;;;;8.60;4.15;;;;;;;14.76;94.09;101945.06;5036242;28;20522;-68
2023/08/23 05:19:28;;;;;;;7.70;4.18;;;;;;;14.82;93.82;101944.38;5031392;28;20040;-68
2023/08/23 05:21:54;;;;;;;6.22;4.68;;;;;;;14.83;93.75;101940.69;5031294;28;20031;-67
2023/08/23 05:24:19;;;;;;;7.20;4.32;;;;;;;14.91;93.92;101946.00;5037054;28;20487;-68
2023/08/23 05:26:44;;;;;;;6.65;4.60;;;;;;;14.96;93.99;101940.13;5031048;28;20037;-68
2023/08/23 05:29:09;;;;;;;7.70;4.72;;;;;;;15.00;93.46;101949.47;5029864;28;20026;-68
2023/08/23 05:31:35;;;;;;;9.07;4.47;;;;;;;15.02;93.97;101940.28;5028704;28;20483;-68
2023/08/23 05:34:00;;;;;;;7.97;4.22;;;;;;;15.04;93.90;101943.63;5029444;28;20021;-68
2023/08/23 05:36:25;;;;;;;7.20;3.97;;;;;;;15.11;94.11;101938.44;5035860;28;20731;-68
2023/08/23 05:38:50;;;;;;;7.88;4.57;;;;;;;15.16;94.47;101944.09;5033680;28;20024;-68
2023/08/23 05:41:16;;;;;;;5.65;4.55;;;;;;;15.15;94.39;101937.91;5035993;28;20543;-68
2023/08/23 05:43:41;;;;;;;6.80;5.40;;;;;;;15.22;94.61;101940.72;5031912;28;20025;-68
2023/08/23 05:46:07;;;;;;;8.20;6.13;;;;;;;15.31;94.79;101939.66;5035584;28;20021;-68
2023/08/23 05:48:34;;;;;;;12.52;5.90;;;;;;;15.31;94.89;101936.97;5030193;28;20017;-68
2023/08/23 05:51:03;;;;;;;13.57;6.30;;;;;;;15.33;94.81;101939.50;5040655;28;20096;-68
2023/08/23 05:53:28;;;;;;;8.52;6.20;;;;;;;15.34;95.20;101941.16;5038908;28;20037;-68
2023/08/23 05:55:53;;;;;;;12.77;5.78;;;;;;;15.30;95.06;101950.53;5035251;28;20036;-68
2023/08/23 05:58:19;;;;;;;12.27;5.50;;;;;;;15.23;95.11;101952.25;5043092;28;20020;-68
2023/08/23 06:00:46;;;;;;;8.02;5.40;;;;;;;15.22;95.40;101958.59;5036061;28;20080;-68
2023/08/23 06:03:14;;;;;;;6.15;5.32;;;;;;;15.20;95.89;101961.47;5030988;28;20621;-68
2023/08/23 06:05:41;;;;;;;9.73;5.20;;;;;;;15.14;95.69;101954.97;5041776;28;20052;-68
2023/08/23 06:08:06;;;;;;;9.32;6.28;;;;;;;15.13;96.19;101950.63;5028630;28;20024;-68
2023/08/23 06:10:32;;;;;;;8.82;5.82;;;;;;;15.19;96.19;101955.28;5034367;28;20019;-67
2023/08/23 06:12:57;;;;;;;8.13;6.15;;;;;;;15.25;96.51;101960.94;5037043;28;20040;-68
2023/08/23 06:15:22;;;;;;;12.00;6.85;;;;;;;15.30;96.83;101962.06;5030808;28;20067;-68
2023/08/23 06:17:47;;;;;;;10.85;7.00;;;;;;;15.34;96.99;101954.56;5036263;28;20052;-67
2023/08/23 06:20:13;;;;;;;12.13;7.00;;;;;;;15.45;96.81;101951.47;5036812;28;20021;-67
2023/08/23 06:22:38;;;;;;;12.52;8.05;;;;;;;15.59;97.81;101953.44;5040187;28;20521;-68
2023/08/23 06:25:05;;;;;;;12.02;7.30;;;;;;;15.64;98.21;101951.06;5037034;28;20025;-68
2023/08/23 06:27:30;;;;;;;15.77;9.10;;;;;;;15.80;98.01;101958.16;5031289;28;20079;-68
2023/08/23 06:29:56;;;;;;;15.65;10.23;;;;;;;15.89;98.65;101961.59;5041868;28;20493;-68
2023/08/23 06:32:24;;;;;;;15.90;10.85;;;;;;;15.97;98.71;101961.56;5029662;28;20037;-68
2023/08/23 06:34:50;;;;;;;16.38;10.45;;;;;;;16.06;98.97;101963.16;5027704;28;20017;-68
2023/08/23 06:37:15;;;;;;;15.48;10.55;;;;;;;16.14;99.12;101971.13;5029407;28;20378;-68
2023/08/23 06:39:40;;;;;;;14.30;10.48;;;;;;;16.20;99.43;101957.03;5032092;28;20036;-68
2023/08/23 06:42:06;;;;;;;16.48;11.32;;;;;;;16.29;99.68;101955.13;5040050;28;20037;-68
2023/08/23 06:44:31;;;;;;;15.68;11.00;;;;;;;16.33;99.44;101959.94;5036845;28;20478;-68
2023/08/23 06:46:56;;;;;;;15.20;11.02;;;;;;;16.38;99.48;101962.91;5035042;28;20025;-69
2023/08/23 06:49:22;;;;;;;19.15;10.90;;;;;;;16.40;99.16;101952.81;5036768;28;20020;-68
2023/08/23 06:51:47;;;;;;;14.43;10.75;;;;;;;16.52;99.53;101965.81;5041541;28;20039;-68
2023/08/23 06:54:12;;;;;;;15.95;10.20;;;;;;;16.57;99.84;101966.09;5044776;28;20017;-68
2023/08/23 06:56:37;;;;;;;16.63;10.52;;;;;;;16.64;99.59;101973.22;5027018;28;20034;-68
2023/08/23 06:59:03;;;;;;;13.85;9.80;;;;;;;16.68;99.26;101971.03;5048821;28;20486;-68
2023/08/23 07:01:28;;;;;;;15.32;10.43;;;;;;;16.73;98.76;101974.81;5043002;28;20032;-68
2023/08/23 07:03:53;;;;;;;15.68;10.32;;;;;;;16.78;98.54;101976.97;5045033;28;20027;-68
2023/08/23 07:06:19;;;;;;;19.67;11.00;;;;;;;16.86;98.10;101978.75;5039038;28;20087;-68
2023/08/23 07:08:44;;;;;;;17.92;10.57;;;;;;;16.90;97.84;101975.50;5041307;28;20490;-68
2023/08/23 07:11:10;;;;;;;17.15;10.65;;;;;;;16.99;97.58;101981.59;5041285;28;20068;-68
2023/08/23 07:13:36;;;;;;;15.13;10.88;;;;;;;17.07;97.53;101989.59;5042482;28;20360;-68
2023/08/23 07:16:05;;;;;;;15.13;10.40;;;;;;;17.14;97.44;101987.81;5044345;28;20025;-68
2023/08/23 07:18:30;;;;;;;13.65;10.05;;;;;;;17.20;97.07;101984.38;5043687;28;20022;-68
2023/08/23 07:20:57;;;;;;;14.32;10.40;;;;;;;17.30;97.07;101979.56;5035599;28;20413;-68
2023/08/23 07:23:22;;;;;;;18.17;10.32;;;;;;;17.42;96.88;101987.97;5038413;28;20128;-68
2023/08/23 07:25:47;;;;;;;18.55;10.32;;;;;;;17.50;96.73;101990.56;5050097;28;20496;-68
2023/08/23 07:28:13;;;;;;;14.23;10.30;;;;;;;17.58;96.29;101987.75;5043833;28;20526;-68
2023/08/23 07:30:38;;;;;;;13.25;10.27;;;;;;;17.70;96.43;101998.06;5044714;28;20018;-68
2023/08/23 07:33:04;;;;;;;11.02;8.85;;;;;;;17.74;95.31;101994.78;5043901;28;20682;-68
2023/08/23 07:35:29;;;;;;;14.50;9.75;;;;;;;17.93;94.67;102014.84;5038923;28;20035;-68
2023/08/23 07:37:55;;;;;;;13.07;8.88;;;;;;;17.98;93.77;102011.59;5040422;28;20017;-68
2023/08/23 07:40:20;;;;;;;15.32;9.43;;;;;;;18.09;93.61;102016.47;5045063;28;20108;-68
2023/08/23 07:42:45;;;;;;;11.90;9.18;;;;;;;18.13;92.79;102015.88;5046934;28;20558;-68
2023/08/23 07:45:10;;;;;;;13.40;9.35;;;;;;;18.21;92.50;102004.16;5046593;28;20021;-67
2023/08/23 07:47:36;;;;;;;13.32;9.35;;;;;;;18.23;92.00;102002.13;5034107;28;20022;-68
2023/08/23 07:50:02;;;;;;;13.63;8.82;;;;;;;18.29;91.44;102003.22;5041607;28;20016;-68
2023/08/23 07:52:27;;;;;;;12.20;9.13;;;;;;;18.36;90.81;102012.16;5050952;28;20044;-67
2023/08/23 07:54:53;;;;;;;17.58;9.40;;;;;;;18.45;90.15;102013.69;5047847;28;20024;-68
2023/08/23 07:57:18;;;;;;;12.35;9.35;;;;;;;18.54;89.65;102007.16;5043829;28;20031;-68
2023/08/23 07:59:43;;;;;;;12.07;8.65;;;;;;;18.65;89.43;102003.97;5048914;28;20026;-68
2023/08/23 08:02:08;;;;;;;11.18;8.15;;;;;;;18.70;88.67;102008.75;5044381;28;20100;-68
2023/08/23 08:04:34;;;;;;;15.45;9.23;;;;;;;18.76;88.31;102000.72;5044589;28;20048;-68
2023/08/23 08:06:59;;;;;;;13.10;9.18;;;;;;;18.88;87.99;102003.72;5046623;28;20102;-68
2023/08/23 08:09:25;;;;;;;12.27;8.82;;;;;;;18.98;88.12;102008.75;5038724;28;20096;-69
2023/08/23 08:11:51;;;;;;;16.15;9.30;;;;;;;19.05;87.99;102013.13;5048122;28;20085;-68
2023/08/23 08:14:16;;;;;;;13.85;8.95;;;;;;;19.17;87.44;102016.94;5043751;28;20025;-68
2023/08/23 08:16:41;;;;;;;12.65;9.07;;;;;;;19.29;87.43;102014.50;5039735;28;20392;-68
2023/08/23 08:19:07;;;;;;;9.73;7.63;;;;;;;19.28;86.51;102010.16;5035503;28;20078;-68
2023/08/23 08:21:32;;;;;;;11.65;7.20;;;;;;;19.31;85.53;102012.44;5041379;28;20036;-68
2023/08/23 08:23:58;;;;;;;11.50;6.72;;;;;;;19.33;84.55;102017.63;5041776;28;20029;-67
2023/08/23 08:26:24;;;;;;;10.30;6.75;;;;;;;19.36;83.59;102018.06;5042450;28;20025;-68
2023/08/23 08:28:49;;;;;;;9.73;6.80;;;;;;;19.50;83.03;102011.72;5048475;28;20021;-68
2023/08/23 08:31:14;;;;;;;10.27;7.75;;;;;;;19.59;83.01;102025.03;5049874;28;20009;-67
2023/08/23 08:33:40;;;;;;;14.88;8.02;;;;;;;19.67;83.13;102020.34;5039144;28;20082;-68
2023/08/23 08:36:05;;;;;;;9.90;6.60;;;;;;;19.75;82.23;102024.72;5037229;28;20396;-68
2023/08/23 08:38:31;;;;;;;10.52;6.35;;;;;;;19.86;81.84;102012.50;5042749;28;20025;-68
2023/08/23 08:40:56;;;;;;;12.85;6.57;;;;;;;19.95;81.28;102012.13;5037331;28;20564;-68
2023/08/23 08:43:22;;;;;;;10.02;5.80;;;;;;;20.07;80.15;101999.69;5049965;28;20021;-68
2023/08/23 08:45:48;;;;;;;13.45;6.70;;;;;;;20.17;79.70;101999.28;5040209;28;20025;-68
2023/08/23 08:48:14;;;;;;;11.77;6.00;;;;;;;20.31;79.34;102000.13;5039204;28;20035;-67
2023/08/23 08:50:41;;;;;;;11.57;5.72;;;;;;;20.32;77.88;102007.19;5040570;28;20664;-68
2023/08/23 08:53:09;;;;;;;9.73;5.65;;;;;;;20.36;77.33;102005.75;5035497;28;20028;-68
2023/08/23 08:55:35;;;;;;;10.25;6.50;;;;;;;20.46;77.53;102002.66;5035052;28;20021;-68
2023/08/23 08:58:02;;;;;;;8.32;4.88;;;;;;;20.48;76.99;102009.50;5037131;28;20025;-68
2023/08/23 09:00:28;;;;;;;11.75;5.00;;;;;;;20.50;75.66;102006.59;5041332;28;20036;-67
2023/08/23 09:02:54;;;;;;;8.35;4.32;;;;;;;20.49;75.17;102011.16;5037880;28;20041;-68
2023/08/23 09:05:21;;;;;;;9.15;4.57;;;;;;;20.60;74.66;102005.16;5041810;28;20112;-68
2023/08/23 09:07:46;;;;;;;6.20;4.05;;;;;;;20.75;74.69;101999.53;5036446;28;20035;-68
2023/08/23 09:10:13;;;;;;;9.35;4.22;;;;;;;20.97;74.50;102003.66;5034175;28;20372;-70
2023/08/23 09:12:38;;;;;;;6.97;3.55;;;;;;;21.06;72.84;102006.94;5042508;28;20032;-67
2023/08/23 09:15:04;;;;;;;7.85;4.55;;;;;;;21.11;72.73;102007.16;5034738;28;20021;-67
2023/08/23 09:17:33;;;;;;;7.05;4.10;;;;;;;21.23;72.50;102005.50;5037471;28;20504;-68
2023/08/23 09:19:58;;;;;;;;;;;;;;;21.37;73.13;102010.84;5040200;28;20021;-68
2023/08/23 09:22:23;;;;;;;6.37;3.47;;;;;;;21.48;71.50;102002.91;5037029;28;19908;-68
2023/08/23 09:24:49;;;;;;;6.40;3.60;;;;;;;21.69;70.69;102011.75;5042184;28;20275;-68
2023/08/23 09:27:15;;;;;;;8.07;3.83;;;;;;;21.88;69.54;102014.34;5049665;28;20591;-68
2023/08/23 09:29:41;;;;;;;7.50;4.07;;;;;;;22.08;69.43;102019.69;5038513;28;20468;-68
2023/08/23 09:32:06;;;;;;;8.98;4.18;;;;;;;22.21;69.57;102026.84;5043024;28;20032;-68
2023/08/23 09:34:31;;;;;;;6.68;3.95;;;;;;;22.34;68.74;102024.06;5044673;28;20060;-68
2023/08/23 09:37:09;;;;;;;6.10;3.75;;;;;;;22.58;68.44;102021.59;5040240;28;20025;-68
2023/08/23 09:39:35;;;;;;;6.60;4.28;;;;;;;22.65;67.14;102015.06;5045794;28;20040;-68
2023/08/23 09:42:05;;;;;;;8.68;4.55;;;;;;;22.59;66.78;102002.44;5043231;28;20028;-67
2023/08/23 09:44:37;;;;;;;6.78;4.40;;;;;;;22.64;66.60;101999.06;5047805;28;20025;-68
2023/08/23 09:47:05;;;;;;;11.02;5.25;;;;;;;22.65;66.17;102006.13;5035243;28;20069;-67
2023/08/23 09:49:33;;;;;;;10.35;5.00;;;;;;;22.64;65.51;102002.59;5042818;28;20430;-68
2023/08/23 09:52:03;;;;;;;10.30;4.53;;;;;;;22.64;65.16;102004.47;5045423;28;20036;-68
2023/08/23 09:55:13;;;;;;;7.93;4.10;;;;;;;22.84;65.11;102005.13;5037188;28;20025;-67
2023/08/23 09:57:40;;;;;;;7.55;4.00;;;;;;;23.06;64.84;102006.34;5038753;28;20057;-68
2023/08/23 10:00:07;;;;;;;7.07;4.68;;;;;;;23.22;64.31;102014.94;5041850;28;20025;-68
2023/08/23 10:02:33;;;;;;;7.85;4.63;;;;;;;23.45;64.26;102006.97;5037411;28;20471;-68
2023/08/23 10:05:01;;;;;;;9.50;4.30;;;;;;;23.58;63.69;102016.84;5040880;28;20033;-68
2023/08/23 10:07:26;;;;;;;5.80;4.05;;;;;;;23.61;61.00;102017.19;5033927;28;20017;-68
2023/08/23 10:09:52;;;;;;;8.30;3.80;;;;;;;23.89;60.95;102026.63;5032930;28;20037;-68
2023/08/23 10:12:19;;;;;;;10.13;4.93;;;;;;;23.93;60.29;102022.41;5031261;28;20028;-68
2023/08/23 10:14:48;;;;;;;6.53;4.63;;;;;;;23.94;60.36;102013.19;5035263;28;20062;-68
2023/08/23 10:17:18;;;;;;;9.15;4.43;;;;;;;24.01;60.40;102003.94;5044417;28;20021;-68
2023/08/23 10:19:49;;;;;;;9.73;4.47;;;;;;;24.03;60.30;102006.41;5040789;28;20025;-68
2023/08/23 10:22:15;;;;;;;9.50;4.43;;;;;;;24.11;59.24;102014.22;5040795;28;20025;-69
2023/08/23 10:24:40;;;;;;;6.47;4.20;;;;;;;24.23;58.65;101997.94;5038389;28;20380;-68
2023/08/23 10:27:07;;;;;;;9.77;5.30;;;;;;;24.40;58.82;102002.50;5047906;28;20024;-68
2023/08/23 10:29:36;;;;;;;11.93;5.03;;;;;;;24.56;59.09;102005.56;5034042;28;20026;-68
2023/08/23 10:32:07;;;;;;;7.57;5.30;;;;;;;24.47;58.16;102007.81;5041060;28;20025;-69
2023/08/23 10:34:35;;;;;;;8.23;5.28;;;;;;;24.39;57.26;102002.75;5033314;28;20079;-68
2023/08/23 10:37:15;;;;;;;13.87;5.73;;;;;;;24.39;56.43;102000.84;5033876;28;20025;-68
2023/08/23 10:39:52;;;;;;;12.55;5.57;;;;;;;24.40;55.78;101999.78;5038622;28;20645;-68
2023/08/23 10:42:18;;;;;;;9.20;5.30;;;;;;;24.51;56.21;101994.59;5040893;28;20025;-67
2023/08/23 10:44:45;;;;;;;9.80;5.28;;;;;;;24.54;55.89;102003.09;5038894;28;20031;-68
2023/08/23 10:47:12;;;;;;;7.88;4.93;;;;;;;24.45;55.41;101999.06;5029256;28;20067;-68
2023/08/23 10:49:39;;;;;;;7.90;4.60;;;;;;;24.57;55.59;101996.34;5040956;28;20017;-68
2023/08/23 10:52:06;;;;;;;7.05;4.45;;;;;;;24.78;55.85;101998.50;5043051;28;20017;-68
2023/08/23 10:54:33;;;;;;;10.43;5.75;;;;;;;24.91;55.95;101995.56;5037603;28;20040;-68
2023/08/23 10:56:58;;;;;;;8.40;5.75;;;;;;;24.93;54.93;101998.03;5044337;28;20509;-68
2023/08/23 10:59:23;;;;;;;11.43;5.82;;;;;;;24.96;55.50;101983.97;5039155;28;20013;-68
2023/08/23 11:01:50;;;;;;;10.43;5.55;;;;;;;25.00;55.19;101979.72;5044427;28;20052;-68
2023/08/23 11:04:17;;;;;;;9.35;5.97;;;;;;;25.05;54.78;101974.41;5043262;28;20032;-68
2023/08/23 11:06:43;;;;;;;12.57;6.10;;;;;;;25.07;54.00;101968.72;5044571;28;20425;-68
2023/08/23 11:09:09;;;;;;;11.07;5.70;;;;;;;25.10;53.33;101969.06;5037500;28;20024;-68
2023/08/23 11:11:34;;;;;;;8.68;5.15;;;;;;;25.28;53.22;101965.38;5041553;28;20021;-68
2023/08/23 11:13:59;;;;;;;9.73;5.78;;;;;;;25.29;53.49;101967.84;5040598;28;20033;-68
2023/08/23 11:16:25;;;;;;;8.63;5.95;;;;;;;25.29;53.63;101956.13;5040373;28;20029;-68